Terminal Aerodrome Forecast
Issued by NWS Paducah, KY

Home | Current Version | Previous Version | Text Only | Print | Product List | Glossary On
Versions: 1 2 3 4 5 6 7 8 9 10 11 12 13 14 15 16 17 18 19 20
000
FTUS43 KPAH 261720
TAFPAH
TAF
KPAH 261720Z 2618/2718 VRB03KT P6SM VCTS SCT035CB
     FM262300 VRB03KT P6SM FEW050 BKN250
     FM270900 00000KT 3SM BR SCT020
     FM271400 18003KT P6SM SCT015=

USA.gov is the U.S. government's official web portal to all federal, state and local government web resources and services.